Tiempo atmosférico en la estación meteorológica de Fuentes de Andalucía, Sevilla (165 m.)



Fecha
DESCASC
Temp. máxima en grados centígrados (hora)
DESCASC
Temp. mínima en grados centígrados (hora)
DESCASC
Temp. media en grados centígrados
DESCASC
Racha de viento máxima en m/sg (hora)
DESCASC
Velocidad máxima media en intervalos de 10 minutos(hora)
DESCASC
Precipitaciones diarias en mm
DESCASC
Precipitaciones de 00:00 a 06:00 en mm
DESCASC
Precipitaciones de 06:00 a 12:00 en mm
DESCASC
Precipitaciones de 12:00 a 18:00 en mm
DESCASC
Precipitaciones de 18:00 a 24:00 en mm
DESCASC
22-04-2019 23.9 (17:20) 11.1 (07:10) 17.5 15 (18:40) 9.72 (19:20) 0 0 0 0 0
21-04-2019 20.1 (16:30) 12 (03:10) 16.1 7.78 (00:20) 3.89 (00:20) 0 0 0 0 0
20-04-2019 20.3 (17:10) 10.1 (02:50) 15.2 11.39 (15:30) 5.28 (15:30) 0 0 0 0 0
19-04-2019 21.3 (16:10) 9.1 (07:30) 15.2 7.78 (17:40) 5.56 (20:10) 15 0 0 6.4 8.6
18-04-2019 19.9 (15:50) 10.6 (00:00) 15.3 12.78 (17:30) 9.72 (17:10) 0.4 0 0 0 0.4
17-04-2019 21.8 (15:40) 13.8 (00:00) 17.8 16.67 (18:50) 9.17 (20:00) 0 0 0 0 0
16-04-2019 26.3 (17:40) 11.1 (00:00) 18.7 7.78 (01:40) 5 (01:00) 0 0 0 0 0
15-04-2019 25.7 (16:40) 13.7 (00:00) 19.7 17.22 (18:40) 11.39 (18:20) 0 0 0 0 0
14-04-2019 27 (17:40) 10.6 (00:00) 18.8 6.94 (02:40) 4.17 (00:40) 0 0 0 0 0
13-04-2019 24.3 (17:30) 9 (00:00) 16.6 7.78 (20:50) 5 (22:30) 0 0 0 0 0
12-04-2019 22.7 (17:40) 7.7 (00:00) 15.2 5.56 (22:10) 3.89 (22:10) 0 0 0 0 0
11-04-2019 21.5 (18:30) 8 (00:00) 14.8 6.67 (16:50) 4.17 (02:30) 0 0 0 0 0
10-04-2019 19.9 (18:00) 7.1 (00:00) 13.5 12.78 (15:00) 6.94 (15:20) 0 0 0 0 0
09-04-2019 18 (16:20) 7.4 (00:00) 12.7 12.78 (16:50) 8.33 (14:50) 0 0 0 0 0
08-04-2019 17 (16:00) 11.1 (00:00) 14.1 14.72 (14:40) 10.28 (16:10) 9.2 0.4 2.2 6.6 0
07-04-2019 15.8 (13:40) 8.6 (00:00) 12.2 11.11 (14:30) 8.33 (14:30) 3 0 0.2 0.2 2.6
06-04-2019 14.6 (14:10) 5.7 (00:00) 10.2 20.56 (14:30) 10.28 (14:40) 6.8 0 0.2 6.6 0
05-04-2019 15.1 (17:50) 7.5 (00:00) 11.3 17.5 (20:10) 10.83 (20:20) 18.8 0.6 15.2 0.6 2.4
04-04-2019 19.5 (16:40) 6.8 (00:00) 13.2 11.67 (20:30) 8.61 (20:20) 0 0 0 0 0
03-04-2019 22.6 (16:50) 10.4 (07:20) 16.5 12.78 (17:40) 8.61 (18:00) 0 0 0 0 0
02-04-2019 21.7 (17:40) 10.8 (00:00) 16.3 5.56 (18:20) 3.61 (20:50) 0 0 0 0 0
01-04-2019 19.6 (14:10) 11.2 (00:00) 15.4 8.89 (12:50) 6.67 (12:50) 6.2 0 0 5.2 1
31-03-2019 22.2 (17:10) 12.1 (00:00) 17.2 11.67 (17:50) 8.61 (17:50) 0.6 0.4 0 0 0.2
30-03-2019 22.8 (14:40) 11.2 (00:00) 17 11.11 (15:20) 6.39 (15:20) 0 0 0 0 0
29-03-2019 22.7 (15:40) 7.3 (00:00) 15 11.11 (11:10) 5.83 (11:50) 0 0 0 0 0
28-03-2019 21.5 (15:30) 7.4 (00:00) 14.5 11.94 (11:00) 6.67 (11:40) 0 0 0 0 0
27-03-2019 22.1 (16:10) 9.5 (00:00) 15.8 8.61 (12:50) 4.17 (13:40) 0 0 0 0 0
26-03-2019 25.6 (15:10) 10.9 (00:00) 18.3 11.67 (13:30) 6.11 (12:50) 0 0 0 0 0
25-03-2019 24.8 (16:50) 8.4 (00:00) 16.6 9.17 (14:10) 4.72 (15:10) 0 0 0 0 0

Gráficas

Temp. máximas Temp. mínimas Temp. medias Precipitaciones Rachas de viento máximas Velocidades máximas media en intervalos de 10 minutos

Datos horarios

Fecha y hora oficial Temperatura (ºC) Velocidad del viento (km/h) Dirección del viento Racha (km/h) Dirección de racha Precipitación (mm) Presión (hPa) Tendencia (hPa) Humedad (%)
2019-04-23 23:00:00 10.5 7 Oeste 26 Oeste 0.2 -- -- 88
2019-04-23 22:00:00 11.4 16 Oeste 32 Oeste 0 -- -- 78
2019-04-23 21:00:00 12.2 22 Sudoeste 39 Sudoeste 0 -- -- 69
2019-04-23 20:00:00 13.6 31 Sudoeste 53 Sudoeste 0 -- -- 58
2019-04-23 19:00:00 15.2 31 Oeste 53 Oeste 0 -- -- 52
2019-04-23 18:00:00 15.5 34 Oeste 66 Sudoeste 0 -- -- 52
2019-04-23 17:00:00 16.5 29 Oeste 50 Oeste 0 -- -- 48
2019-04-23 16:00:00 14.9 27 Oeste 45 Oeste 0.2 -- -- 60
2019-04-23 15:00:00 14.2 25 Oeste 55 Oeste 0.2 -- -- 66
2019-04-23 14:00:00 14.5 21 Sudoeste 42 Oeste 0 -- -- 66
2019-04-23 13:00:00 14.4 22 Oeste 37 Oeste 0 -- -- 60
2019-04-23 12:00:00 13.7 18 Oeste 33 Oeste 0 -- -- 66
2019-04-23 11:00:00 12.4 22 Oeste 33 Oeste 0 -- -- 72
2019-04-23 10:00:00 10.6 18 Oeste 31 Oeste 0 -- -- 93
2019-04-23 09:00:00 10.7 18 Sudoeste 29 Sudoeste 0.2 -- -- 94
2019-04-23 08:00:00 10.6 20 Oeste 26 Noroeste 0.4 -- -- 93
2019-04-23 07:00:00 11.6 26 Oeste 67 Sudoeste 4.6 -- -- 93
2019-04-23 06:00:00 13.1 19 Sudoeste 28 Sudoeste 0.2 -- -- 92
2019-04-23 05:00:00 13 18 Sudoeste 27 Sudoeste 0.2 -- -- 90
2019-04-23 04:00:00 13.5 19 Sudoeste 35 Sudoeste 0 -- -- 85
2019-04-23 03:00:00 13.9 23 Sudoeste 41 Sudoeste 0 -- -- 84
2019-04-23 02:00:00 14.3 28 Sudoeste 50 Sudoeste 0 -- -- 79
2019-04-23 01:00:00 14.5 27 Sudoeste 43 Sudoeste 0 -- -- 80
2019-04-23 00:00:00 14.4 27 Sudoeste 47 Sudoeste 0 -- -- 82
2019-04-22 23:00:00 14.6 30 Sudoeste 50 Sudoeste 0 -- -- 83
2019-04-22 22:00:00 15.3 31 Sudoeste 43 Sudoeste 0 -- -- 80
2019-04-22 21:00:00 17.1 32 Sudoeste 48 Sudoeste 0 -- -- 65
2019-04-22 20:00:00 19.5 33 Sudoeste 50 Sudoeste 0 -- -- 54
2019-04-22 19:00:00 22.3 32 Sudoeste 54 Sudoeste 0 -- -- 46
2019-04-22 18:00:00 22.7 23 Sudoeste 46 Sudoeste 0 -- -- 38
2019-04-22 17:00:00 23.5 26 Sudoeste 39 Oeste 0 -- -- 43
2019-04-22 16:00:00 22.7 22 Oeste 34 Oeste 0 -- -- 43
2019-04-22 15:00:00 21.5 19 Sudoeste 31 Sudoeste 0 -- -- 50
2019-04-22 14:00:00 20.2 17 Oeste 27 Sudoeste 0 -- -- 54
2019-04-22 13:00:00 18 9 Oeste 16 Oeste 0 -- -- 60
2019-04-22 12:00:00 16.1 6 Sudoeste 11 Sudoeste 0 -- -- 64
2019-04-22 11:00:00 15.1 5 Sudoeste 10 Sur 0 -- -- 70
2019-04-22 10:00:00 14.9 6 Sur 8 Sudoeste 0 -- -- 73
2019-04-22 09:00:00 12.3 3 Sur 8 Sur 0 -- -- 80
2019-04-22 08:00:00 11.5 6 Sur 9 Sudoeste 0 -- -- 82
2019-04-22 07:00:00 11.2 10 Sudoeste 11 Sudoeste 0 -- -- 84
2019-04-22 06:00:00 11.9 4 Oeste 5 Noroeste 0 -- -- 80
2019-04-22 05:00:00 12.7 3 Oeste 6 Norte 0 -- -- 73
2019-04-22 04:00:00 13 5 Norte 7 Noroeste 0 -- -- 72
2019-04-22 03:00:00 13.5 4 Norte 6 Norte 0 -- -- 67
2019-04-22 02:00:00 13.4 4 Norte 6 Norte 0 -- -- 71
2019-04-22 01:00:00 13.6 3 Norte 6 Norte 0 -- -- 72
2019-04-22 00:00:00 13.6 3 Nordeste 8 Nordeste 0 -- -- 74
2019-04-21 23:00:00 13.7 4 Nordeste 8 Nordeste 0 -- -- 68
2019-04-21 22:00:00 14 5 Este 11 Nordeste 0 -- -- 67
2019-04-21 21:00:00 15.4 5 Nordeste 15 Este 0 -- -- 64
2019-04-21 20:00:00 17.4 10 Nordeste 20 Nordeste 0 -- -- 56
2019-04-21 19:00:00 17.3 5 Nordeste 20 Este 0 -- -- 58
2019-04-21 18:00:00 18.3 9 Este 20 Este 0 -- -- 54
2019-04-21 17:00:00 19.1 8 Nordeste 20 Nordeste 0 -- -- 52
2019-04-21 16:00:00 19.7 11 Este 22 Nordeste 0 -- -- 50
2019-04-21 15:00:00 18.2 9 Nordeste 23 Nordeste 0 -- -- 54
2019-04-21 14:00:00 18.3 10 Nordeste 22 Nordeste 0 -- -- 53
2019-04-21 13:00:00 17 9 Nordeste 24 Nordeste 0 -- -- 59
2019-04-21 12:00:00 16.3 13 Nordeste 24 Nordeste 0 -- -- 61
2019-04-21 11:00:00 14.7 8 Nordeste 21 Nordeste 0 -- -- 67
2019-04-21 10:00:00 13 10 Nordeste 27 Nordeste 0 -- -- 74
2019-04-21 09:00:00 12.6 11 Nordeste 27 Nordeste 0 -- -- 76
2019-04-21 08:00:00 12.6 6 Nordeste 20 Nordeste 0 -- -- 79
2019-04-21 07:00:00 12.9 5 Nordeste 13 Nordeste 0 -- -- 73
2019-04-21 06:00:00 12.9 7 Nordeste 16 Este 0 -- -- 72
2019-04-21 05:00:00 12.8 3 Nordeste 13 Este 0 -- -- 72
2019-04-21 04:00:00 12.4 4 Nordeste 13 Este 0 -- -- 74
2019-04-21 03:00:00 12.2 5 Nordeste 10 Este 0 -- -- 75
2019-04-21 02:00:00 12.6 4 Este 16 Nordeste 0 -- -- 72
2019-04-21 01:00:00 14 8 Nordeste 28 Este 0 -- -- 65
2019-04-21 00:00:00 15.2 12 Nordeste 26 Nordeste 0 -- -- 63
2019-04-20 23:00:00 15.5 12 Nordeste 28 Nordeste 0 -- -- 64
2019-04-20 22:00:00 15.9 14 Nordeste 30 Este 0 -- -- 63
2019-04-20 21:00:00 16.9 10 Nordeste 36 Nordeste 0 -- -- 60
2019-04-20 20:00:00 17.9 16 Nordeste 36 Nordeste 0 -- -- 56
2019-04-20 19:00:00 18.8 14 Nordeste 37 Nordeste 0 -- -- 55
2019-04-20 18:00:00 20 17 Nordeste 36 Nordeste 0 -- -- 54
2019-04-20 17:00:00 20 18 Nordeste 33 Nordeste 0 -- -- 53
2019-04-20 16:00:00 19.6 17 Nordeste 41 Nordeste 0 -- -- 56
2019-04-20 15:00:00 18.7 15 Nordeste 34 Este 0 -- -- 62
2019-04-20 14:00:00 17.4 15 Nordeste 37 Nordeste 0 -- -- 65
2019-04-20 13:00:00 15.4 8 Este 18 Nordeste 0 -- -- 75
2019-04-20 12:00:00 14.5 5 Nordeste 13 Nordeste 0 -- -- 78
2019-04-20 11:00:00 13.2 3 Norte 12 Nordeste 0 -- -- 83
2019-04-20 10:00:00 11.9 4 Nordeste 11 Nordeste 0 -- -- 87
2019-04-20 09:00:00 11 6 Nordeste 17 Nordeste 0 -- -- 88
2019-04-20 08:00:00 10.2 7 Nordeste 19 Nordeste 0 -- -- 90
2019-04-20 07:00:00 10.2 6 Nordeste 18 Nordeste 0 -- -- 91
2019-04-20 06:00:00 10.2 6 Nordeste 13 Nordeste 0 -- -- 93
2019-04-20 05:00:00 10.3 6 Nordeste 15 Nordeste 0 -- -- 93
2019-04-20 04:00:00 10.2 8 Nordeste 15 Nordeste 0 -- -- 93
2019-04-20 03:00:00 10.1 5 Nordeste 10 Nordeste 0 -- -- 92
2019-04-20 02:00:00 10.5 3 Nordeste 6 Este 0 -- -- 91
2019-04-20 01:00:00 11 4 Este 9 Nordeste 0 -- -- 90
2019-04-20 00:00:00 11.2 5 Nordeste 9 Sudeste 0 -- -- 90
2019-04-19 23:00:00 11.9 5 Sudeste 12 Sur 0 -- -- 87
2019-04-19 22:00:00 11.9 5 Este 17 Sudoeste 0 -- -- 87
2019-04-19 21:00:00 11.7 10 Sudoeste 25 Sur 0.6 -- -- 86
2019-04-19 20:00:00 12 18 Sur 27 Noroeste 8 -- -- 87
2019-04-19 19:00:00 15.6 14 Noroeste 22 Noroeste 0 -- -- 71
2019-04-19 18:00:00 16.3 5 Oeste 28 Norte 6.4 -- -- 68
2019-04-19 17:00:00 19.4 5 Oeste 22 Oeste 0 -- -- 48
2019-04-19 16:00:00 21.1 7 Oeste 16 Noroeste 0 -- -- 44
2019-04-19 15:00:00 19.7 4 Sudoeste 15 Sudoeste 0 -- -- 49
2019-04-19 14:00:00 18.8 6 Norte 15 Nordeste 0 -- -- 51
2019-04-19 13:00:00 18.6 4 Norte 15 Este 0 -- -- 54
2019-04-19 12:00:00 16.3 4 Norte 12 Noroeste 0 -- -- 63
2019-04-19 11:00:00 14.9 3 Nordeste 10 Este 0 -- -- 70
2019-04-19 10:00:00 12.1 3 Este 7 Este 0 -- -- 87
2019-04-19 09:00:00 10.7 3 Este 8 Este 0 -- -- 93
2019-04-19 08:00:00 9.2 4 Este 8 Este 0 -- -- 93
2019-04-19 07:00:00 9.2 5 Nordeste 8 Nordeste 0 -- -- 92
2019-04-19 06:00:00 9.9 0 Calma 5 Sudoeste 0 -- -- 90
2019-04-19 05:00:00 10.2 3 Norte 9 Sudoeste 0 -- -- 89
2019-04-19 04:00:00 9.7 8 Sur 13 Sur 0 -- -- 92
2019-04-19 03:00:00 9.3 11 Sur 18 Sudoeste 0 -- -- 91
2019-04-19 02:00:00 9.8 12 Sudoeste 14 Sudoeste 0 -- -- 89
2019-04-19 01:00:00 10.6 9 Sudoeste 13 Sudoeste 0 -- -- 90
2019-04-19 00:00:00 11 6 Sur 13 Sur 0 -- -- 88
2019-04-18 23:00:00 10.6 9 Sur 13 Sur 0 -- -- 89
2019-04-18 22:00:00 11 10 Sur 17 Sur 0 -- -- 88
2019-04-18 21:00:00 12.7 11 Sudoeste 15 Sur 0 -- -- 84
2019-04-18 20:00:00 13 6 Noroeste 15 Norte 0.2 -- -- 85
2019-04-18 19:00:00 12.5 13 Noroeste 39 Oeste 0.2 -- -- 84
2019-04-18 18:00:00 14.4 32 Oeste 46 Oeste 0 -- -- 64
2019-04-18 17:00:00 17.9 27 Oeste 41 Sudoeste 0 -- -- 58
2019-04-18 16:00:00 19.9 12 Noroeste 22 Sudoeste 0 -- -- 46
2019-04-18 15:00:00 18.7 12 Oeste 22 Oeste 0 -- -- 52
2019-04-18 14:00:00 17 10 Oeste 18 Oeste 0 -- -- 60
2019-04-18 13:00:00 15.1 6 Oeste 15 Oeste 0 -- -- 68
2019-04-18 12:00:00 13.7 10 Oeste 22 Oeste 0 -- -- 76
2019-04-18 11:00:00 13.1 17 Sudoeste 23 Sudoeste 0 -- -- 81
2019-04-18 10:00:00 13.7 9 Sudoeste 13 Sudoeste 0 -- -- 80
2019-04-18 09:00:00 12.8 4 Sur 12 Sur 0 -- -- 82
2019-04-18 08:00:00 12.3 8 Sur 12 Sur 0 -- -- 81
2019-04-18 07:00:00 12.4 4 Sur 9 Sur 0 -- -- 78
2019-04-18 06:00:00 13.1 5 Sur 9 Sur 0 -- -- 76
2019-04-18 05:00:00 13.5 5 Sudoeste 8 Sudoeste 0 -- -- 75
2019-04-18 04:00:00 13.7 2 Noroeste 8 Oeste 0 -- -- 73
2019-04-18 03:00:00 13.6 7 Oeste 10 Oeste 0 -- -- 74
2019-04-18 02:00:00 13.8 0 Calma 14 Oeste 0 -- -- 70
2019-04-18 01:00:00 14 12 Oeste 18 Oeste 0 -- -- 68
2019-04-18 00:00:00 14.9 4 Sur 16 Sudeste 0 -- -- 65
2019-04-17 23:00:00 14.9 7 Sudeste 21 Sudeste 0 -- -- 62
2019-04-17 22:00:00 15 8 Sudeste 17 Sudoeste 0 -- -- 62
2019-04-17 21:00:00 15.5 14 Sudoeste 33 Oeste 0 -- -- 60
2019-04-17 20:00:00 15.7 33 Oeste 46 Oeste 0 -- -- 59
2019-04-17 19:00:00 16.9 32 Oeste 60 Sudoeste 0 -- -- 66
2019-04-17 18:00:00 19.3 26 Sudoeste 42 Sudoeste 0 -- -- 58
2019-04-17 17:00:00 19.9 28 Sudoeste 44 Sudoeste 0 -- -- 58
2019-04-17 16:00:00 21.2 23 Oeste 36 Sudoeste 0 -- -- 53
2019-04-17 15:00:00 21 20 Oeste 27 Sudoeste 0 -- -- 56
2019-04-17 14:00:00 20.5 13 Oeste 24 Oeste 0 -- -- 50
2019-04-17 13:00:00 19.9 16 Oeste 23 Oeste 0 -- -- 52
2019-04-17 12:00:00 20.4 12 Oeste 17 Noroeste 0 -- -- 48
2019-04-17 11:00:00 20.5 10 Sur 17 Sur 0 -- -- 45
2019-04-17 10:00:00 18.4 8 Sur 15 Sur 0 -- -- 47
2019-04-17 09:00:00 16.3 9 Sudeste 21 Sudeste 0 -- -- 51
2019-04-17 08:00:00 15.9 14 Sudeste 27 Sudeste 0 -- -- 49
2019-04-17 07:00:00 15.7 14 Sudeste 28 Este 0 -- -- 49
2019-04-17 06:00:00 14.7 13 Sudeste 21 Sudeste 0 -- -- 56
2019-04-17 05:00:00 14.8 12 Sudeste 24 Sudeste 0 -- -- 61
2019-04-17 04:00:00 14.4 8 Sudeste 17 Sudeste 0 -- -- 61
2019-04-17 03:00:00 14.5 10 Sudeste 20 Sudeste 0 -- -- 56
2019-04-17 02:00:00 15.1 11 Sudeste 17 Este 0 -- -- 49
2019-04-17 01:00:00 15.9 8 Sudeste 15 Este 0 -- -- 47
2019-04-17 00:00:00 17.4 5 Sudeste 10 Sudeste 0 -- -- 47
2019-04-16 23:00:00 18.5 9 Sur 16 Sudoeste 0 -- -- 48
2019-04-16 22:00:00 19.7 11 Sur 18 Sudoeste 0 -- -- 51
2019-04-16 21:00:00 21.6 8 Sudoeste 17 Oeste 0 -- -- 45
2019-04-16 20:00:00 24.5 14 Sudoeste 20 Sudoeste 0 -- -- 40
2019-04-16 19:00:00 25.8 13 Sudoeste 23 Sudoeste 0 -- -- 39
2019-04-16 18:00:00 26.2 8 Sur 23 Sudoeste 0 -- -- 38
2019-04-16 17:00:00 25.7 8 Sur 19 Sur 0 -- -- 36
2019-04-16 16:00:00 25.1 5 Sudeste 22 Sudeste 0 -- -- 36
2019-04-16 15:00:00 23.7 7 Este 18 Este 0 -- -- 40
2019-04-16 14:00:00 22.4 8 Este 21 Nordeste 0 -- -- 47
2019-04-16 13:00:00 20.4 10 Este 24 Nordeste 0 -- -- 60
2019-04-16 12:00:00 18.7 6 Este 13 Este 0 -- -- 66
2019-04-16 11:00:00 16.8 4 Nordeste 11 Nordeste 0 -- -- 73
2019-04-16 10:00:00 14.7 3 Este 8 Este 0 -- -- 86
2019-04-16 09:00:00 12 3 Este 7 Sudoeste 0 -- -- 94
2019-04-16 08:00:00 11.1 7 Sudoeste 13 Sudoeste 0 -- -- 94
2019-04-16 07:00:00 11.4 6 Sudoeste 13 Sudoeste 0 -- -- 93
2019-04-16 06:00:00 11.3 9 Sudoeste 17 Sudoeste 0 -- -- 92
2019-04-16 05:00:00 11.5 10 Sudoeste 14 Sudoeste 0 -- -- 91
2019-04-16 04:00:00 11.8 12 Sudoeste 20 Sudoeste 0 -- -- 91
2019-04-16 03:00:00 12.2 14 Sudoeste 21 Sudoeste 0 -- -- 90
2019-04-16 02:00:00 12.3 13 Sudoeste 28 Sudoeste 0 -- -- 90
2019-04-16 01:00:00 12.9 18 Sudoeste 27 Sudoeste 0 -- -- 89
2019-04-16 00:00:00 13.7 14 Sur 27 Sudoeste 0 -- -- 86
2019-04-15 23:00:00 15.2 21 Sudoeste 36 Sudoeste 0 -- -- 80
2019-04-15 22:00:00 16.4 26 Sudoeste 38 Sudoeste 0 -- -- 76
2019-04-15 21:00:00 18 23 Sudoeste 54 Sudoeste 0 -- -- 68
2019-04-15 20:00:00 19.7 35 Sudoeste 51 Sudoeste 0 -- -- 58
2019-04-15 19:00:00 21.6 39 Sudoeste 62 Sudoeste 0 -- -- 54
2019-04-15 18:00:00 24.2 37 Sudoeste 53 Sudoeste 0 -- -- 47
2019-04-15 17:00:00 25.4 27 Sudoeste 39 Sudoeste 0 -- -- 45
2019-04-15 16:00:00 25.3 24 Sudoeste 41 Sudoeste 0 -- -- 39
2019-04-15 15:00:00 24.9 19 Sudoeste 36 Oeste 0 -- -- 38
2019-04-15 14:00:00 24.4 21 Sudoeste 31 Sudoeste 0 -- -- 29
2019-04-15 13:00:00 22.9 17 Sudoeste 25 Sudoeste 0 -- -- 42
2019-04-15 12:00:00 20.7 18 Sudoeste 28 Sudoeste 0 -- -- 58
2019-04-15 11:00:00 19 16 Sudoeste 23 Sudoeste 0 -- -- 67
2019-04-15 10:00:00 16.1 9 Sur 12 Sur 0 -- -- 80
2019-04-15 09:00:00 15.2 5 Sur 9 Este 0 -- -- 80
2019-04-15 08:00:00 14.2 6 Este 9 Este 0 -- -- 81
2019-04-15 07:00:00 14 5 Este 9 Este 0 -- -- 82
2019-04-15 06:00:00 15.1 6 Este 9 Este 0 -- -- 79
2019-04-15 05:00:00 15.3 6 Este 9 Este 0 -- -- 79
2019-04-15 04:00:00 16.9 3 Sudeste 9 Sur 0 -- -- 71
2019-04-15 03:00:00 18.5 8 Sur 13 Sur 0 -- -- 65
2019-04-15 02:00:00 19 7 Sur 12 Sur 0 -- -- 64
2019-04-15 01:00:00 21.2 5 Sudeste 9 Sudeste 0 -- -- 55
2019-04-15 00:00:00 21.9 2 Sur 3 Sudoeste 0 -- -- 51
2019-04-14 23:00:00 21.5 2 Oeste 6 Oeste 0 -- -- 55
2019-04-14 22:00:00 21.9 5 Oeste 8 Sudoeste 0 -- -- 53
2019-04-14 21:00:00 23.2 6 Sudoeste 10 Sur 0 -- -- 51
2019-04-14 20:00:00 25.1 6 Sudoeste 12 Sudoeste 0 -- -- 51
2019-04-14 19:00:00 26.7 5 Sur 15 Oeste 0 -- -- 39
2019-04-14 18:00:00 26.7 10 Oeste 19 Oeste 0 -- -- 41
2019-04-14 17:00:00 25.4 5 Oeste 12 Oeste 0 -- -- 44
2019-04-14 16:00:00 25.7 5 Oeste 17 Oeste 0 -- -- 42
2019-04-14 15:00:00 24.5 4 Noroeste 14 Oeste 0 -- -- 45
2019-04-14 14:00:00 23.5 5 Oeste 10 Oeste 0 -- -- 46
2019-04-14 13:00:00 22.3 5 Este 14 Nordeste 0 -- -- 49
2019-04-14 12:00:00 20.2 7 Nordeste 15 Nordeste 0 -- -- 58
2019-04-14 11:00:00 18.2 8 Nordeste 18 Nordeste 0 -- -- 65
2019-04-14 10:00:00 16.3 8 Nordeste 15 Nordeste 0 -- -- 66
2019-04-14 09:00:00 11.8 4 Este 7 Nordeste 0 -- -- 83
2019-04-14 08:00:00 11.5 4 Sudeste 8 Sudeste 0 -- -- 79
2019-04-14 07:00:00 12.1 3 Sudeste 5 Sudeste 0 -- -- 80
2019-04-14 06:00:00 12.2 2 Oeste 6 Oeste 0 -- -- 79
2019-04-14 05:00:00 12.4 5 Oeste 6 Oeste 0 -- -- 76
2019-04-14 04:00:00 12.1 3 Sur 16 Sudoeste 0 -- -- 79
2019-04-14 03:00:00 11.9 14 Sudoeste 25 Sudoeste 0 -- -- 80
2019-04-14 02:00:00 12 14 Sudoeste 18 Sudoeste 0 -- -- 80
2019-04-14 01:00:00 12.9 14 Sur 21 Sur 0 -- -- 74
2019-04-14 00:00:00 13.7 15 Sur 22 Sur 0 -- -- 68
2019-04-13 23:00:00 15.2 12 Sudoeste 23 Sudoeste 0 -- -- 61
2019-04-13 22:00:00 16.9 15 Oeste 21 Oeste 0 -- -- 55
2019-04-13 21:00:00 18.9 16 Sudoeste 28 Sudoeste 0 -- -- 49
2019-04-13 20:00:00 22.6 12 Sudoeste 21 Sudoeste 0 -- -- 38
2019-04-13 19:00:00 23.6 14 Sudoeste 24 Sudoeste 0 -- -- 33
2019-04-13 18:00:00 24.2 11 Oeste 23 Oeste 0 -- -- 32
2019-04-13 17:00:00 24.1 7 Oeste 26 Oeste 0 -- -- 32
2019-04-13 16:00:00 23.7 10 Sudoeste 17 Oeste 0 -- -- 32
2019-04-13 15:00:00 22.9 10 Oeste 21 Oeste 0 -- -- 34
2019-04-13 14:00:00 22.2 5 Sur 10 Sudoeste 0 -- -- 35
2019-04-13 13:00:00 20.7 3 Sur 10 Este 0 -- -- 43
2019-04-13 12:00:00 18.7 3 Nordeste 12 Este 0 -- -- 49
2019-04-13 11:00:00 17.3 6 Sudeste 11 Este 0 -- -- 57
2019-04-13 10:00:00 14.1 4 Sudeste 7 Sudeste 0 -- -- 69
2019-04-13 09:00:00 10.3 0 Calma 8 Sudeste 0 -- -- 81
2019-04-13 08:00:00 9 6 Este 8 Este 0 -- -- 83
2019-04-13 07:00:00 10 0 Calma 6 Sudoeste 0 -- -- 80
2019-04-13 06:00:00 11 5 Sudoeste 11 Sudoeste 0 -- -- 77
2019-04-13 05:00:00 10.9 8 Sudoeste 14 Sudoeste 0 -- -- 77
2019-04-13 04:00:00 11.2 12 Sur 14 Sur 0 -- -- 75
2019-04-13 03:00:00 11.4 13 Sur 20 Sur 0 -- -- 75
2019-04-13 02:00:00 11.7 9 Sur 16 Sur 0 -- -- 75
2019-04-13 01:00:00 12.2 9 Sur 17 Sudoeste 0 -- -- 70
2019-04-13 00:00:00 13.4 10 Sudoeste 14 Sur 0 -- -- 64
2019-04-12 23:00:00 14.8 8 Oeste 20 Sudoeste 0 -- -- 60
2019-04-12 22:00:00 17.2 10 Sudoeste 13 Sudoeste 0 -- -- 48
2019-04-12 21:00:00 18.6 10 Sudoeste 14 Sur 0 -- -- 45
2019-04-12 20:00:00 21.7 7 Sudoeste 13 Sudoeste 0 -- -- 40
2019-04-12 19:00:00 22.5 6 Sur 14 Sudoeste 0 -- -- 30
2019-04-12 18:00:00 22.7 8 Sudoeste 14 Sudoeste 0 -- -- 32
2019-04-12 17:00:00 22.6 4 Sudoeste 16 Norte 0 -- -- 34
2019-04-12 16:00:00 22 4 Sur 15 Noroeste 0 -- -- 32
2019-04-12 15:00:00 21.4 8 Norte 16 Norte 0 -- -- 35
2019-04-12 14:00:00 20.2 5 Nordeste 12 Este 0 -- -- 46
2019-04-12 13:00:00 18.8 8 Este 19 Este 0 -- -- 52
2019-04-12 12:00:00 17.1 9 Este 15 Este 0 -- -- 62
2019-04-12 11:00:00 14.5 6 Nordeste 17 Nordeste 0 -- -- 73
2019-04-12 10:00:00 11.7 6 Nordeste 15 Nordeste 0 -- -- 81
2019-04-12 09:00:00 8.9 2 Nordeste 10 Este 0 -- -- 93
2019-04-12 08:00:00 7.7 6 Este 11 Este 0 -- -- 92
2019-04-12 07:00:00 8.8 7 Este 9 Este 0 -- -- 91
2019-04-12 06:00:00 10.1 3 Sur 4 Sudoeste 0 -- -- 91
2019-04-12 05:00:00 10.6 2 Oeste 12 Sudoeste 0 -- -- 90
2019-04-12 04:00:00 10.7 9 Sudoeste 13 Sudoeste 0 -- -- 89
2019-04-12 03:00:00 10.7 9 Sudoeste 12 Sudoeste 0 -- -- 88
2019-04-12 02:00:00 11.2 11 Sudoeste 18 Sudoeste 0 -- -- 88
2019-04-12 01:00:00 11.7 13 Sudoeste 16 Sudoeste 0 -- -- 85
2019-04-12 00:00:00 12.7 6 Sudoeste 11 Sudoeste 0 -- -- 78
2019-04-11 23:00:00 14.9 2 Nordeste 8 Norte 0 -- -- 54
2019-04-11 22:00:00 15.7 5 Noroeste 12 Sudoeste 0 -- -- 55
2019-04-11 21:00:00 17.1 8 Sudoeste 14 Sudoeste 0 -- -- 55
2019-04-11 20:00:00 20.3 7 Oeste 13 Sudoeste 0 -- -- 48
2019-04-11 19:00:00 21 5 Oeste 20 Oeste 0 -- -- 39
2019-04-11 18:00:00 21.1 7 Oeste 22 Oeste 0 -- -- 41
2019-04-11 17:00:00 20.8 6 Sudoeste 24 Noroeste 0 -- -- 43
2019-04-11 16:00:00 20.1 8 Noroeste 15 Noroeste 0 -- -- 44
2019-04-11 15:00:00 19.3 6 Oeste 15 Sudoeste 0 -- -- 46
2019-04-11 14:00:00 17.8 7 Noroeste 15 Este 0 -- -- 54
2019-04-11 13:00:00 16.9 4 Nordeste 13 Norte 0 -- -- 54
2019-04-11 12:00:00 15.7 4 Este 12 Nordeste 0 -- -- 59
2019-04-11 11:00:00 14.2 6 Nordeste 17 Nordeste 0 -- -- 63
2019-04-11 10:00:00 12.7 5 Nordeste 13 Nordeste 0 -- -- 68
2019-04-11 09:00:00 9.5 3 Nordeste 7 Nordeste 0 -- -- 83
2019-04-11 08:00:00 8.1 0 Calma 9 Este 0 -- -- 86
2019-04-11 07:00:00 8.2 0 Calma 10 Sudoeste 0 -- -- 84
2019-04-11 06:00:00 8.5 6 Sudoeste 13 Sur 0 -- -- 85
2019-04-11 05:00:00 8.9 7 Sudoeste 9 Sur 0 -- -- 82
2019-04-11 04:00:00 10.1 6 Noroeste 13 Noroeste 0 -- -- 79
2019-04-11 03:00:00 10.4 9 Noroeste 23 Noroeste 0 -- -- 78
2019-04-11 02:00:00 10 12 Noroeste 20 Noroeste 0 -- -- 78
2019-04-11 01:00:00 11.4 12 Noroeste 18 Noroeste 0 -- -- 70
2019-04-11 00:00:00 11.4 11 Noroeste 15 Noroeste 0 -- -- 69
2019-04-10 23:00:00 12.5 10 Noroeste 12 Noroeste 0 -- -- 65
2019-04-10 22:00:00 13.3 6 Noroeste 17 Noroeste 0 -- -- 61
2019-04-10 21:00:00 15 15 Noroeste 28 Oeste 0 -- -- 53
2019-04-10 20:00:00 17.8 20 Noroeste 35 Noroeste 0 -- -- 42
2019-04-10 19:00:00 19.2 22 Noroeste 34 Noroeste 0 -- -- 41
2019-04-10 18:00:00 19.9 23 Noroeste 37 Norte 0 -- -- 41
2019-04-10 17:00:00 18.8 18 Noroeste 34 Noroeste 0 -- -- 44
2019-04-10 16:00:00 18.3 15 Noroeste 40 Oeste 0 -- -- 45
2019-04-10 15:00:00 17.8 21 Oeste 46 Oeste 0 -- -- 52
2019-04-10 14:00:00 15.4 14 Oeste 25 Sudoeste 0 -- -- 61
2019-04-10 13:00:00 14.9 12 Noroeste 22 Noroeste 0 -- -- 62
2019-04-10 12:00:00 13.4 14 Noroeste 23 Oeste 0 -- -- 67
2019-04-10 11:00:00 12.2 11 Sudoeste 15 Sudoeste 0 -- -- 76
2019-04-10 10:00:00 9.8 8 Sudoeste 13 Sudoeste 0 -- -- 91
2019-04-10 09:00:00 8 7 Sur 12 Oeste 0 -- -- 91
2019-04-10 08:00:00 7.3 5 Oeste 13 Oeste 0 -- -- 91
2019-04-10 07:00:00 7.4 7 Sudoeste 13 Oeste 0 -- -- 88
2019-04-10 06:00:00 7.9 0 Calma 18 Oeste 0 -- -- 90
2019-04-10 05:00:00 8.5 7 Noroeste 13 Oeste 0 -- -- 90
2019-04-10 04:00:00 8.9 10 Noroeste 15 Noroeste 0 -- -- 89
2019-04-10 03:00:00 9.7 6 Noroeste 17 Noroeste 0 -- -- 88
2019-04-10 02:00:00 11.2 13 Oeste 21 Oeste 0 -- -- 83
2019-04-10 01:00:00 11.5 16 Oeste 22 Oeste 0 -- -- 81
2019-04-10 00:00:00 12.2 12 Oeste 20 Oeste 0 -- -- 81
2019-04-09 23:00:00 11.2 12 Oeste 18 Sudoeste 0 -- -- 89
2019-04-09 22:00:00 12.1 12 Sudoeste 14 Oeste 0 -- -- 85
2019-04-09 21:00:00 13.2 10 Oeste 42 Oeste 0 -- -- 81
2019-04-09 20:00:00 14.9 10 Oeste 35 Sudoeste 0 -- -- 74
2019-04-09 19:00:00 16.1 14 Oeste 32 Oeste 0 -- -- 71
2019-04-09 18:00:00 16.6 22 Oeste 35 Oeste 0 -- -- 61
2019-04-09 17:00:00 15.5 23 Oeste 46 Oeste 0 -- -- 66
2019-04-09 16:00:00 17.6 24 Oeste 37 Oeste 0 -- -- 58
2019-04-09 15:00:00 15.9 27 Oeste 42 Oeste 0 -- -- 63
2019-04-09 14:00:00 17.4 24 Oeste 36 Sudoeste 0 -- -- 58
2019-04-09 13:00:00 15.9 19 Oeste 31 Oeste 0 -- -- 66
2019-04-09 12:00:00 14.5 16 Oeste 26 Oeste 0 -- -- 74
2019-04-09 11:00:00 12.6 11 Sudoeste 18 Sudoeste 0 -- -- 83
2019-04-09 10:00:00 10.4 13 Sudoeste 19 Sudoeste 0 -- -- 93
2019-04-09 09:00:00 8.1 11 Sur 18 Sur 0 -- -- 95
2019-04-09 08:00:00 7.5 12 Sur 16 Sudoeste 0 -- -- 93
2019-04-09 07:00:00 8.1 12 Sudoeste 16 Sudoeste 0 -- -- 91
2019-04-09 06:00:00 8.5 13 Oeste 21 Oeste 0 -- -- 91
2019-04-09 05:00:00 8.7 14 Oeste 18 Oeste 0 -- -- 89
2019-04-09 04:00:00 8.7 13 Oeste 20 Oeste 0 -- -- 89
2019-04-09 03:00:00 9.2 14 Oeste 20 Oeste 0 -- -- 92
2019-04-09 02:00:00 9.7 14 Oeste 21 Oeste 0 -- -- 94
2019-04-09 01:00:00 10.5 14 Sudoeste 23 Sudoeste 0 -- -- 94
2019-04-09 00:00:00 11.1 14 Sudoeste 26 Sudoeste 0 -- -- 94
2019-04-08 23:00:00 11.8 22 Sudoeste 42 Sudoeste 0 -- -- 91
2019-04-08 22:00:00 12.5 25 Sudoeste 38 Sudoeste 0 -- -- 88
2019-04-08 21:00:00 13.8 24 Sudoeste 40 Sudoeste 0 -- -- 86
2019-04-08 20:00:00 15.1 20 Sudoeste 32 Sudoeste 0 -- -- 83
2019-04-08 19:00:00 14.9 20 Oeste 35 Oeste 0 -- -- 87
2019-04-08 18:00:00 14.8 27 Oeste 47 Oeste 0.2 -- -- 86
2019-04-08 17:00:00 14.7 27 Oeste 51 Sudoeste 0.4 -- -- 91
2019-04-08 16:00:00 17 35 Sudoeste 47 Sudoeste 0 -- -- 85
2019-04-08 15:00:00 16.4 30 Sudoeste 53 Sudoeste 0.2 -- -- 89
2019-04-08 14:00:00 14.6 18 Oeste 32 Sudoeste 2.6 -- -- 94
2019-04-08 13:00:00 14 24 Sudoeste 38 Sudoeste 3.2 -- -- 94
2019-04-08 12:00:00 14.1 25 Sudoeste 51 Sudoeste 1.8 -- -- 92
2019-04-08 11:00:00 14.5 22 Sudoeste 40 Sudoeste 0 -- -- 97
2019-04-08 10:00:00 13.7 21 Sudoeste 36 Sudoeste 0.2 -- -- 97
2019-04-08 09:00:00 13.4 12 Sudoeste 24 Sudoeste 0.2 -- -- 97
2019-04-08 08:00:00 13 13 Sudoeste 24 Sudoeste 0 -- -- 97
2019-04-08 07:00:00 13.1 19 Sudoeste 34 Sudoeste 0 -- -- 97
2019-04-08 06:00:00 13.1 21 Sudoeste 32 Sudoeste 0 -- -- 97
2019-04-08 05:00:00 13.4 19 Sudoeste 29 Sudoeste 0 -- -- 97
2019-04-08 04:00:00 13.6 18 Sudoeste 31 Sudoeste 0 -- -- 97
2019-04-08 03:00:00 13.6 19 Sudoeste 31 Sudoeste 0.2 -- -- 96
2019-04-08 02:00:00 13.7 21 Sudoeste 30 Sudoeste 0.2 -- -- 96
2019-04-08 01:00:00 13.6 17 Sudoeste 28 Sudoeste 0 -- -- 96
2019-04-08 00:00:00 13.5 21 Sudoeste 33 Sudoeste 0 -- -- 96
2019-04-07 23:00:00 13.9 25 Sudoeste 33 Sudoeste 0.2 -- -- 96
2019-04-07 22:00:00 14 17 Sudoeste 26 Oeste 0 -- -- 95
2019-04-07 21:00:00 14.4 18 Oeste 33 Sudoeste 0 -- -- 95
2019-04-07 20:00:00 14.4 25 Sudoeste 35 Oeste 1 -- -- 95
2019-04-07 19:00:00 13.1 14 Sur 28 Sudoeste 1.4 -- -- 94
2019-04-07 18:00:00 13.4 17 Sudoeste 31 Sudoeste 0.2 -- -- 92
2019-04-07 17:00:00 13.9 17 Sudoeste 28 Sudoeste 0 -- -- 85
2019-04-07 16:00:00 13.4 18 Sudoeste 33 Sudoeste 0 -- -- 85
2019-04-07 15:00:00 14.6 24 Sudoeste 40 Sudoeste 0 -- -- 74
2019-04-07 14:00:00 15.7 18 Oeste 29 Oeste 0 -- -- 64
2019-04-07 13:00:00 14.7 14 Oeste 28 Oeste 0 -- -- 71
2019-04-07 12:00:00 14.6 14 Oeste 23 Sudoeste 0.2 -- -- 73
2019-04-07 11:00:00 12.4 9 Sudoeste 17 Sudoeste 0 -- -- 83
2019-04-07 10:00:00 10.5 7 Oeste 12 Sudoeste 0 -- -- 90
2019-04-07 09:00:00 9 7 Sudoeste 14 Sudoeste 0 -- -- 93
2019-04-07 08:00:00 8.8 10 Sudoeste 18 Oeste 0 -- -- 92
2019-04-07 07:00:00 9.1 15 Oeste 26 Oeste 0 -- -- 90
2019-04-07 06:00:00 9.8 21 Oeste 30 Oeste 0 -- -- 86
2019-04-07 05:00:00 9.5 20 Oeste 34 Oeste 0 -- -- 88
2019-04-07 04:00:00 9.5 20 Oeste 33 Oeste 0 -- -- 87
2019-04-07 03:00:00 9.1 22 Oeste 30 Oeste 0 -- -- 87
2019-04-07 02:00:00 9.5 21 Oeste 32 Oeste 0 -- -- 86
2019-04-07 01:00:00 8.8 20 Oeste 32 Sudoeste 0 -- -- 88
2019-04-07 00:00:00 9.1 13 Oeste 26 Sudoeste 0 -- -- 90
2019-04-06 23:00:00 9.5 17 Sudoeste 31 Sudoeste 0 -- -- 89
2019-04-06 22:00:00 10.1 7 Oeste 12 Oeste 0 -- -- 90
2019-04-06 21:00:00 10.6 10 Oeste 23 Oeste 0 -- -- 87
2019-04-06 20:00:00 11.6 21 Oeste 40 Sudoeste 0 -- -- 82
2019-04-06 19:00:00 12.6 22 Sudoeste 37 Sudoeste 0 -- -- 80
2019-04-06 18:00:00 11 20 Oeste 40 Sudoeste 2.8 -- -- 86
2019-04-06 17:00:00 13.1 31 Sudoeste 46 Sudoeste 0.2 -- -- 77
2019-04-06 16:00:00 9.5 26 Oeste 39 Oeste 2.4 -- -- 88
2019-04-06 15:00:00 8.8 22 Noroeste 74 Oeste 1 -- -- 90
2019-04-06 14:00:00 13.9 24 Sudoeste 35 Oeste 0 -- -- 69
2019-04-06 13:00:00 11 20 Oeste 33 Oeste 0.2 -- -- 80
2019-04-06 12:00:00 11.9 19 Sudoeste 30 Sudoeste 0 -- -- 81
2019-04-06 11:00:00 9.9 14 Oeste 25 Oeste 0 -- -- 92
2019-04-06 10:00:00 7.9 10 Sur 19 Sur 0.2 -- -- 95
2019-04-06 09:00:00 6.9 7 Sudoeste 12 Sudoeste 0 -- -- 94
2019-04-06 08:00:00 6.1 10 Sur 15 Sudoeste 0 -- -- 94
2019-04-06 07:00:00 5.9 9 Sur 13 Sudoeste 0 -- -- 94
2019-04-06 06:00:00 5.8 11 Sudoeste 17 Sudoeste 0 -- -- 93
2019-04-06 05:00:00 6.2 15 Sudoeste 21 Sudoeste 0 -- -- 93
2019-04-06 04:00:00 5.8 14 Sudoeste 18 Sudoeste 0 -- -- 92
2019-04-06 03:00:00 6.5 13 Sudoeste 20 Oeste 0 -- -- 92
2019-04-06 02:00:00 7.5 15 Sudoeste 24 Sudoeste 0 -- -- 91
2019-04-06 01:00:00 7.2 17 Sudoeste 29 Sudoeste 0 -- -- 90
2019-04-06 00:00:00 7.5 20 Sudoeste 29 Oeste 0 -- -- 88
2019-04-05 23:00:00 8.6 18 Oeste 32 Sudoeste 0 -- -- 89
2019-04-05 22:00:00 8.4 20 Sudoeste 29 Sudoeste 0.2 -- -- 88
2019-04-05 21:00:00 8.3 12 Sudoeste 63 Oeste 2.2 -- -- 86
2019-04-05 20:00:00 11.6 28 Sudoeste 53 Sudoeste 0 -- -- 64
2019-04-05 19:00:00 13.1 32 Sudoeste 57 Sudoeste 0 -- -- 58
2019-04-05 18:00:00 14.9 32 Oeste 54 Oeste 0 -- -- 47
2019-04-05 17:00:00 14.6 33 Oeste 49 Sudoeste 0 -- -- 52
2019-04-05 16:00:00 13.2 27 Oeste 54 Oeste 0.6 -- -- 61
2019-04-05 15:00:00 14 28 Oeste 50 Oeste 0 -- -- 54
2019-04-05 14:00:00 13.7 30 Oeste 53 Oeste 0 -- -- 56
2019-04-05 13:00:00 11.2 25 Oeste 36 Oeste 0 -- -- 84
2019-04-05 12:00:00 10.4 22 Sudoeste 32 Sudoeste 1.6 -- -- 94
2019-04-05 11:00:00 10.4 19 Sudoeste 26 Sudoeste 0 -- -- 93
2019-04-05 10:00:00 9.6 15 Sudoeste 35 Sudoeste 5.2 -- -- 94
2019-04-05 09:00:00 8.9 11 Sur 24 Sur 0.6 -- -- 93
2019-04-05 08:00:00 8 8 Sur 46 Oeste 6.2 -- -- 93
2019-04-05 07:00:00 9.4 17 Sur 25 Sur 1.6 -- -- 93
2019-04-05 06:00:00 9.3 10 Sur 19 Sudoeste 0.6 -- -- 88
2019-04-05 05:00:00 9.4 12 Sur 16 Sudoeste 0 -- -- 77
2019-04-05 04:00:00 9.8 11 Sudoeste 24 Sudoeste 0 -- -- 69
2019-04-05 03:00:00 9.7 17 Sudoeste 26 Sudoeste 0 -- -- 69
2019-04-05 02:00:00 9.2 17 Sudoeste 25 Sudoeste 0 -- -- 73
2019-04-05 01:00:00 9.6 19 Sudoeste 36 Sudoeste 0 -- -- 67
2019-04-05 00:00:00 10.1 20 Sudoeste 30 Sudoeste 0 -- -- 63
2019-04-04 23:00:00 10.4 20 Sudoeste 32 Sur 0 -- -- 65
2019-04-04 22:00:00 11.8 22 Sudoeste 38 Sudoeste 0 -- -- 58
2019-04-04 21:00:00 13.6 26 Sudoeste 42 Sudoeste 0 -- -- 48
2019-04-04 20:00:00 16.6 28 Sudoeste 39 Sudoeste 0 -- -- 36
2019-04-04 19:00:00 17.9 30 Sudoeste 41 Sudoeste 0 -- -- 33
2019-04-04 18:00:00 19.4 20 Sudoeste 32 Sudoeste 0 -- -- 30
2019-04-04 17:00:00 19.3 17 Sudoeste 33 Sudoeste 0 -- -- 26
2019-04-04 16:00:00 18.6 18 Oeste 32 Sudoeste 0 -- -- 28
2019-04-04 15:00:00 17.9 14 Oeste 33 Sudoeste 0 -- -- 33
2019-04-04 14:00:00 16.3 11 Sudoeste 23 Oeste 0 -- -- 37
2019-04-04 13:00:00 14.9 6 Noroeste 19 Oeste 0 -- -- 38
2019-04-04 12:00:00 13.5 8 Sudoeste 17 Oeste 0 -- -- 40
2019-04-04 11:00:00 11.7 5 Noroeste 12 Noroeste 0 -- -- 46
2019-04-04 10:00:00 10.1 8 Noroeste 10 Noroeste 0 -- -- 55
2019-04-04 09:00:00 7.1 4 Noroeste 12 Norte 0 -- -- 63
2019-04-04 08:00:00 8 2 Norte 8 Norte 0 -- -- 56
2019-04-04 07:00:00 8.3 5 Norte 10 Norte 0 -- -- 56
2019-04-04 06:00:00 8.6 4 Norte 14 Nordeste 0 -- -- 60
2019-04-04 05:00:00 9.1 3 Nordeste 11 Norte 0 -- -- 61
2019-04-04 04:00:00 10.2 7 Norte 13 Norte 0 -- -- 59
2019-04-04 03:00:00 10.3 9 Norte 17 Norte 0 -- -- 65
2019-04-04 02:00:00 10.8 12 Norte 19 Norte 0 -- -- 66
2019-04-04 01:00:00 11.7 11 Norte 15 Noroeste 0 -- -- 65
2019-04-04 00:00:00 12.6 10 Noroeste 13 Noroeste 0 -- -- 63
2019-04-03 23:00:00 13.5 11 Norte 15 Noroeste 0 -- -- 59
2019-04-03 22:00:00 14.3 8 Noroeste 19 Oeste 0 -- -- 52
2019-04-03 21:00:00 15.7 13 Oeste 30 Oeste 0 -- -- 47
2019-04-03 20:00:00 19.7 22 Oeste 39 Sudoeste 0 -- -- 36
2019-04-03 19:00:00 21 27 Oeste 38 Oeste 0 -- -- 35
2019-04-03 18:00:00 21.7 31 Oeste 46 Oeste 0 -- -- 30
2019-04-03 17:00:00 22.3 30 Oeste 45 Oeste 0 -- -- 34
2019-04-03 16:00:00 22.4 26 Sudoeste 40 Sudoeste 0 -- -- 35
2019-04-03 15:00:00 22 24 Oeste 38 Oeste 0 -- -- 34
2019-04-03 14:00:00 20.9 17 Oeste 29 Oeste 0 -- -- 42
2019-04-03 13:00:00 19.6 9 Sudoeste 15 Sudoeste 0 -- -- 56
2019-04-03 12:00:00 18.1 5 Sur 10 Este 0 -- -- 64
2019-04-03 11:00:00 15.7 5 Nordeste 10 Este 0 -- -- 77
2019-04-03 10:00:00 12.9 2 Nordeste 6 Nordeste 0 -- -- 93
2019-04-03 09:00:00 11.1 0 Calma 8 Sur 0 -- -- 94
2019-04-03 08:00:00 10.6 6 Sudoeste 8 Sudoeste 0 -- -- 94
2019-04-03 07:00:00 10.7 7 Sudoeste 12 Sudoeste 0 -- -- 94
2019-04-03 06:00:00 10.8 11 Sudoeste 12 Sudoeste 0 -- -- 94
2019-04-03 05:00:00 10.9 11 Sudoeste 17 Sur 0 -- -- 93
2019-04-03 04:00:00 11.3 12 Sur 16 Sur 0 -- -- 92
2019-04-03 03:00:00 12.3 10 Sur 15 Sur 0 -- -- 90
2019-04-03 02:00:00 13 12 Sur 16 Sur 0 -- -- 83
2019-04-03 01:00:00 13.9 7 Sudoeste 18 Sur 0 -- -- 78
2019-04-03 00:00:00 14.3 11 Oeste 17 Oeste 0 -- -- 75
2019-04-02 23:00:00 15.3 8 Sudoeste 13 Sudoeste 0 -- -- 72
2019-04-02 22:00:00 15.5 11 Sudoeste 15 Sudoeste 0 -- -- 73
2019-04-02 21:00:00 16.5 12 Sudoeste 17 Sudoeste 0 -- -- 70
2019-04-02 20:00:00 19.5 9 Sudoeste 14 Sur 0 -- -- 58
2019-04-02 19:00:00 21 8 Sur 20 Sudoeste 0 -- -- 49
2019-04-02 18:00:00 21.7 8 Oeste 17 Oeste 0 -- -- 48
2019-04-02 17:00:00 20.9 3 Noroeste 14 Oeste 0 -- -- 52
2019-04-02 16:00:00 20.3 3 Norte 18 Sudeste 0 -- -- 54
2019-04-02 15:00:00 19.1 4 Este 9 Sudeste 0 -- -- 64
2019-04-02 14:00:00 18.4 4 Este 11 Este 0 -- -- 65
2019-04-02 13:00:00 16.6 3 Sudoeste 13 Este 0 -- -- 72
2019-04-02 12:00:00 15.1 4 Este 8 Este 0 -- -- 88
2019-04-02 11:00:00 13.2 4 Nordeste 8 Nordeste 0 -- -- 96
2019-04-02 10:00:00 12 0 Calma 8 Norte 0 -- -- 96
2019-04-02 09:00:00 11.8 5 Norte 11 Norte 0 -- -- 96
2019-04-02 08:00:00 11.1 3 Este 5 Este 0 -- -- 96
2019-04-02 07:00:00 10.8 4 Nordeste 8 Sur 0 -- -- 95
2019-04-02 06:00:00 12 6 Sur 8 Sudoeste 0 -- -- 95
2019-04-02 05:00:00 11.1 3 Noroeste 6 Sur 0 -- -- 94
2019-04-02 04:00:00 11.9 5 Sur 10 Sur 0 -- -- 95
2019-04-02 03:00:00 11.5 7 Sur 13 Sur 0 -- -- 94
2019-04-02 02:00:00 11.9 8 Sur 13 Sur 0 -- -- 94
2019-04-02 01:00:00 12 9 Sur 15 Sur 0 -- -- 93
2019-04-02 00:00:00 12.1 10 Sur 14 Sudoeste 0 -- -- 92
2019-04-01 23:00:00 12.4 10 Sur 15 Sur 0 -- -- 92
2019-04-01 22:00:00 12.9 13 Sur 19 Sur 0 -- -- 89
2019-04-01 21:00:00 13.7 11 Sudoeste 13 Sur 0 -- -- 84
2019-04-01 20:00:00 15.5 5 Sur 21 Sur 0 -- -- 77
2019-04-01 19:00:00 14.3 12 Sur 19 Sur 1 -- -- 85
2019-04-01 18:00:00 13.3 13 Sudoeste 22 Sur 3 -- -- 86
2019-04-01 17:00:00 14.3 16 Sudoeste 28 Sudoeste 0.4 -- -- 83
2019-04-01 16:00:00 14.9 10 Oeste 30 Sudoeste 1.8 -- -- 85
2019-04-01 15:00:00 17.4 14 Noroeste 29 Sudoeste 0 -- -- 70
2019-04-01 14:00:00 18.9 17 Sur 27 Sur 0 -- -- 62
2019-04-01 13:00:00 15.4 18 Sur 32 Sur 0 -- -- 77
2019-04-01 12:00:00 16.1 15 Sur 22 Sur 0 -- -- 72
2019-04-01 11:00:00 15.9 9 Sur 15 Sur 0 -- -- 72
2019-04-01 10:00:00 13.2 5 Este 10 Este 0 -- -- 88
2019-04-01 09:00:00 11.8 5 Este 10 Este 0 -- -- 91
2019-04-01 08:00:00 11.2 5 Este 9 Este 0 -- -- 92
2019-04-01 07:00:00 11.6 5 Este 8 Este 0 -- -- 91
2019-04-01 06:00:00 12.9 4 Sudoeste 15 Sur 0 -- -- 88
2019-04-01 05:00:00 12.9 9 Sur 12 Sur 0 -- -- 88
2019-04-01 04:00:00 12.8 6 Sur 11 Sur 0 -- -- 87
2019-04-01 03:00:00 13 6 Sudeste 18 Sudeste 0 -- -- 88
2019-04-01 02:00:00 13.4 5 Sur 14 Sudeste 0 -- -- 86
2019-04-01 01:00:00 13.8 5 Sudeste 13 Sudeste 0 -- -- 84
2019-04-01 00:00:00 13.3 9 Sudeste 15 Sudeste 0 -- -- 88
2019-03-31 23:00:00 14.1 6 Sudeste 13 Sudeste 0 -- -- 84
2019-03-31 22:00:00 14.6 6 Sudeste 16 Sur 0.2 -- -- 83
2019-03-31 21:00:00 16.1 6 Sur 19 Sur 0 -- -- 72
2019-03-31 20:00:00 17.5 5 Norte 16 Noroeste 0 -- -- 63
2019-03-31 19:00:00 17.2 15 Noroeste 40 Noroeste 0 -- -- 60
2019-03-31 18:00:00 17.8 30 Noroeste 42 Noroeste 0 -- -- 56
2019-03-31 17:00:00 21.9 5 Nordeste 22 Este 0 -- -- 48
2019-03-31 16:00:00 21.2 6 Este 21 Este 0 -- -- 48
2019-03-31 15:00:00 20.6 5 Este 16 Nordeste 0 -- -- 56
2019-03-31 14:00:00 19 7 Nordeste 15 Nordeste 0 -- -- 60
2019-03-31 13:00:00 19.2 6 Este 17 Sudeste 0 -- -- 61
2019-03-31 12:00:00 17.6 10 Este 19 Este 0 -- -- 70
2019-03-31 11:00:00 16.1 9 Este 16 Nordeste 0 -- -- 78
2019-03-31 10:00:00 13.3 5 Este 15 Este 0 -- -- 90
2019-03-31 09:00:00 12.4 9 Este 15 Este 0 -- -- 91
2019-03-31 08:00:00 12.1 4 Este 8 Este 0 -- -- 90
2019-03-31 07:00:00 12.4 4 Nordeste 7 Nordeste 0 -- -- 89
2019-03-31 06:00:00 12.7 3 Este 5 Este 0 -- -- 88
2019-03-31 05:00:00 12.9 4 Este 9 Nordeste 0 -- -- 87
2019-03-31 03:00:00 13.2 4 Norte 16 Sudeste 0.4 -- -- 85
2019-03-31 01:00:00 13.7 10 Sudeste 21 Este 0 -- -- 78
2019-03-31 00:00:00 15 7 Sudeste 15 Sudeste 0 -- -- 63
2019-03-30 23:00:00 14.8 8 Sudeste 16 Este 0 -- -- 63
2019-03-30 22:00:00 14.7 4 Este 12 Sudeste 0 -- -- 61
2019-03-30 21:00:00 15.4 6 Sudeste 15 Sudeste 0 -- -- 59
2019-03-30 20:00:00 16.4 10 Sudeste 24 Sudeste 0 -- -- 55
2019-03-30 19:00:00 18 15 Sudeste 30 Sudeste 0 -- -- 50
2019-03-30 18:00:00 20.5 19 Sudeste 32 Sudeste 0 -- -- 43
2019-03-30 17:00:00 21.9 15 Sudeste 33 Este 0 -- -- 40
2019-03-30 16:00:00 22.5 18 Este 40 Sudeste 0 -- -- 37
2019-03-30 15:00:00 22.2 21 Sudeste 37 Sudeste 0 -- -- 36
2019-03-30 14:00:00 22.4 14 Este 31 Sudeste 0 -- -- 37
2019-03-30 13:00:00 21.2 21 Este 35 Este 0 -- -- 41
2019-03-30 12:00:00 20.1 17 Este 31 Este 0 -- -- 44
2019-03-30 11:00:00 18 14 Este 37 Este 0 -- -- 53
2019-03-30 10:00:00 15.9 19 Este 33 Este 0 -- -- 59
2019-03-30 09:00:00 13.5 15 Este 27 Este 0 -- -- 69
2019-03-30 08:00:00 11.2 14 Este 26 Nordeste 0 -- -- 75
2019-03-30 07:00:00 11.9 15 Este 33 Este 0 -- -- 72
2019-03-30 06:00:00 11.8 15 Este 26 Este 0 -- -- 73
2019-03-30 05:00:00 11.8 14 Este 24 Este 0 -- -- 73
2019-03-30 04:00:00 11.6 13 Este 21 Este 0 -- -- 75
2019-03-30 03:00:00 12.1 10 Este 21 Este 0 -- -- 72
2019-03-30 02:00:00 12.7 9 Este 23 Sudeste 0 -- -- 69
2019-03-30 01:00:00 12.7 14 Sudeste 25 Sudeste 0 -- -- 67
2019-03-30 00:00:00 13 9 Sudeste 21 Sudeste 0 -- -- 65
2019-03-29 23:00:00 13.3 13 Sudeste 28 Sudeste 0 -- -- 63
2019-03-29 22:00:00 14.1 15 Sudeste 31 Este 0 -- -- 57
2019-03-29 21:00:00 15.3 14 Sudeste 24 Sudeste 0 -- -- 53
2019-03-29 20:00:00 16.7 11 Sudeste 25 Sudeste 0 -- -- 50
2019-03-29 19:00:00 18.3 13 Sudeste 27 Sudeste 0 -- -- 45
2019-03-29 18:00:00 19.5 15 Sudeste 33 Sudeste 0 -- -- 43
2019-03-29 17:00:00 21.6 17 Sudeste 32 Este 0 -- -- 37
2019-03-29 16:00:00 22.6 15 Este 29 Sudeste 0 -- -- 35
2019-03-29 15:00:00 22.5 12 Sudeste 28 Sudeste 0 -- -- 35
2019-03-29 14:00:00 21.5 15 Este 33 Este 0 -- -- 37
2019-03-29 13:00:00 20.8 18 Este 35 Este 0 -- -- 38
2019-03-29 12:00:00 19.4 19 Este 40 Este 0 -- -- 41
2019-03-29 11:00:00 17.3 18 Este 33 Este 0 -- -- 46
2019-03-29 10:00:00 14.3 18 Este 29 Este 0 -- -- 48
2019-03-29 09:00:00 11.4 12 Este 24 Este 0 -- -- 52
2019-03-29 08:00:00 9.2 15 Este 25 Este 0 -- -- 60
2019-03-29 07:00:00 7.9 11 Este 19 Este 0 -- -- 72
2019-03-29 06:00:00 7.5 8 Este 16 Este 0 -- -- 77
2019-03-29 05:00:00 7.7 9 Este 14 Este 0 -- -- 77
2019-03-29 04:00:00 8.2 6 Este 13 Este 0 -- -- 74
2019-03-29 03:00:00 8.6 9 Este 21 Sudeste 0 -- -- 71
2019-03-29 02:00:00 10.6 12 Este 28 Este 0 -- -- 63
2019-03-29 01:00:00 11.3 5 Nordeste 31 Sudeste 0 -- -- 69
2019-03-29 00:00:00 12.4 17 Sudeste 36 Sudeste 0 -- -- 64
2019-03-28 23:00:00 12.2 14 Sudeste 28 Sudeste 0 -- -- 62
2019-03-28 22:00:00 12.8 17 Sudeste 26 Sudeste 0 -- -- 49
2019-03-28 21:00:00 13.7 17 Sudeste 32 Sudeste 0 -- -- 39
2019-03-28 20:00:00 15.1 16 Sudeste 33 Sudeste 0 -- -- 35
2019-03-28 19:00:00 17.8 15 Sudeste 36 Sudeste 0 -- -- 30
2019-03-28 18:00:00 19.6 18 Sur 35 Sudeste 0 -- -- 25
2019-03-28 17:00:00 20.6 17 Sudeste 40 Sudeste 0 -- -- 23
2019-03-28 16:00:00 21.3 16 Sudeste 37 Sudeste 0 -- -- 20
2019-03-28 15:00:00 21.1 19 Sudeste 42 Este 0 -- -- 25
2019-03-28 14:00:00 20.3 20 Sudeste 40 Sudeste 0 -- -- 31
2019-03-28 13:00:00 19.6 18 Sudeste 41 Este 0 -- -- 35
2019-03-28 12:00:00 18.5 21 Este 42 Sudeste 0 -- -- 38
2019-03-28 11:00:00 17 23 Sudeste 43 Sudeste 0 -- -- 41
2019-03-28 10:00:00 15.4 16 Este 29 Este 0 -- -- 48
2019-03-28 09:00:00 12.9 11 Este 25 Este 0 -- -- 64
2019-03-28 08:00:00 8.8 12 Este 19 Este 0 -- -- 80
2019-03-28 07:00:00 7.5 8 Este 14 Este 0 -- -- 84
2019-03-28 06:00:00 7.7 9 Este 13 Este 0 -- -- 84
2019-03-28 05:00:00 8.3 6 Este 14 Este 0 -- -- 79
2019-03-28 04:00:00 9.2 6 Este 13 Este 0 -- -- 77
2019-03-28 03:00:00 9.7 8 Este 19 Este 0 -- -- 78
2019-03-28 02:00:00 9.9 4 Nordeste 11 Este 0 -- -- 73
2019-03-28 01:00:00 11.1 4 Este 10 Nordeste 0 -- -- 67
2019-03-28 00:00:00 11.8 2 Norte 20 Sudeste 0 -- -- 63
2019-03-27 23:00:00 12.5 12 Sudeste 24 Sur 0 -- -- 59
2019-03-27 22:00:00 12.9 12 Sudeste 23 Sudeste 0 -- -- 55
2019-03-27 21:00:00 13.9 11 Sudeste 26 Sudeste 0 -- -- 47
2019-03-27 20:00:00 16.1 12 Sudeste 25 Sur 0 -- -- 40
2019-03-27 19:00:00 19.5 14 Sur 26 Sur 0 -- -- 33
2019-03-27 18:00:00 21.8 7 Este 23 Este 0 -- -- 23
2019-03-27 17:00:00 21.8 6 Este 28 Este 0 -- -- 23
2019-03-27 16:00:00 22 12 Este 25 Sudeste 0 -- -- 23
2019-03-27 15:00:00 21.6 14 Este 28 Este 0 -- -- 23
2019-03-27 14:00:00 21 12 Este 30 Este 0 -- -- 24
2019-03-27 13:00:00 19.8 14 Este 31 Este 0 -- -- 28
2019-03-27 12:00:00 18.4 12 Este 24 Este 0 -- -- 34
2019-03-27 11:00:00 17 11 Este 22 Este 0 -- -- 42
2019-03-27 10:00:00 15.4 10 Este 26 Este 0 -- -- 44
2019-03-27 09:00:00 12.9 11 Este 18 Este 0 -- -- 66
2019-03-27 08:00:00 10 10 Este 15 Este 0 -- -- 79
2019-03-27 07:00:00 9.6 8 Este 18 Este 0 -- -- 75
2019-03-27 06:00:00 11.3 11 Este 23 Este 0 -- -- 66
2019-03-27 05:00:00 11.6 10 Este 22 Sudeste 0 -- -- 66
2019-03-27 04:00:00 12.3 12 Sudeste 23 Este 0 -- -- 65
2019-03-27 03:00:00 11.8 5 Este 15 Sudeste 0 -- -- 71
2019-03-27 02:00:00 12.7 7 Sudeste 18 Sudeste 0 -- -- 72
2019-03-27 01:00:00 13.5 6 Este 16 Este 0 -- -- 73
2019-03-27 00:00:00 13.8 6 Este 13 Este 0 -- -- 70
2019-03-26 23:00:00 15.1 7 Este 17 Sudeste 0 -- -- 60
2019-03-26 22:00:00 15.9 8 Sudeste 16 Sudeste 0 -- -- 55
2019-03-26 21:00:00 17.1 5 Sudeste 17 Sudeste 0 -- -- 48
2019-03-26 20:00:00 18.7 9 Sudeste 19 Sur 0 -- -- 43
2019-03-26 19:00:00 20.8 12 Sudeste 29 Sudeste 0 -- -- 38
2019-03-26 18:00:00 22.8 14 Sur 31 Sur 0 -- -- 34
2019-03-26 17:00:00 23 16 Sudeste 33 Sudeste 0 -- -- 32
2019-03-26 16:00:00 24.8 17 Sudeste 31 Sudeste 0 -- -- 31
2019-03-26 15:00:00 25.5 17 Este 37 Este 0 -- -- 31
2019-03-26 14:00:00 24.8 21 Este 42 Este 0 -- -- 32
2019-03-26 13:00:00 23.5 19 Este 38 Este 0 -- -- 33
2019-03-26 12:00:00 22.2 17 Este 30 Este 0 -- -- 38
2019-03-26 11:00:00 20.8 14 Este 27 Este 0 -- -- 41
2019-03-26 10:00:00 17.6 10 Este 21 Este 0 -- -- 54
2019-03-26 09:00:00 14.9 8 Este 21 Este 0 -- -- 65
2019-03-26 08:00:00 11.4 10 Este 18 Este 0 -- -- 79
2019-03-26 07:00:00 11.1 10 Este 17 Este 0 -- -- 79
2019-03-26 06:00:00 11.2 12 Este 17 Este 0 -- -- 77
2019-03-26 05:00:00 11 8 Este 14 Este 0 -- -- 75
2019-03-26 04:00:00 12 8 Este 17 Este 0 -- -- 69
2019-03-26 03:00:00 13.3 10 Este 22 Nordeste 0 -- -- 64
2019-03-26 02:00:00 14.1 10 Este 18 Este 0 -- -- 63
2019-03-26 01:00:00 13.8 9 Este 18 Este 0 -- -- 63
2019-03-26 00:00:00 15.4 12 Este 23 Sudeste 0 -- -- 58
2019-03-25 23:00:00 15.8 11 Sudeste 26 Sudeste 0 -- -- 54
2019-03-25 22:00:00 16.3 15 Sudeste 23 Sudeste 0 -- -- 50
2019-03-25 21:00:00 17.2 12 Sudeste 21 Sudeste 0 -- -- 48
2019-03-25 20:00:00 18.7 11 Sudeste 22 Sur 0 -- -- 47
2019-03-25 19:00:00 21.7 12 Sudeste 27 Sudeste 0 -- -- 41
2019-03-25 18:00:00 24.2 11 Sudeste 24 Nordeste 0 -- -- 36
2019-03-25 17:00:00 24.8 11 Este 26 Norte 0 -- -- 32
2019-03-25 16:00:00 24.5 15 Este 31 Este 0 -- -- 33
2019-03-25 15:00:00 24.1 12 Este 33 Este 0 -- -- 34
2019-03-25 14:00:00 23.1 12 Este 30 Este 0 -- -- 37
2019-03-25 13:00:00 22.3 11 Este 29 Este 0 -- -- 35
2019-03-25 12:00:00 20.2 10 Nordeste 25 Este 0 -- -- 41
2019-03-25 11:00:00 17.9 12 Este 24 Este 0 -- -- 49
2019-03-25 10:00:00 15.3 8 Nordeste 17 Nordeste 0 -- -- 59
2019-03-25 09:00:00 12.3 7 Nordeste 14 Nordeste 0 -- -- 73
2019-03-25 08:00:00 9.2 8 Este 16 Este 0 -- -- 83
2019-03-25 07:00:00 8.6 6 Este 13 Este 0 -- -- 83
2019-03-25 06:00:00 8.8 6 Este 12 Este 0 -- -- 82
2019-03-25 05:00:00 9.7 5 Este 10 Este 0 -- -- 78
2019-03-25 04:00:00 10.3 4 Este 8 Este 0 -- -- 74
2019-03-25 03:00:00 11 5 Este 10 Este 0 -- -- 73
2019-03-25 02:00:00 11 4 Este 9 Este 0 -- -- 72
2019-03-25 01:00:00 12.3 3 Nordeste 5 Nordeste 0 -- -- 67
2019-03-25 00:00:00 13.7 3 Este 9 Este 0 -- -- 62